Time;durP1;ratioP1;P1;durP2;ratioP2;P2;SDS_P1;SDS_P2;PMS_P1;PMS_P2;Temp;Humidity;BMP_temperature;BMP_pressure;BME280_temperature;BME280_humidity;BME280_pressure;Samples;Min_cycle;Max_cycle;Signal;HPM_P1;HPM_P2
2022/12/20 00:01:25;;;;;;;21.45;11.05;;;8.70;99.90;;;;;;5063627;28;20035;-79
2022/12/20 00:03:52;;;;;;;28.83;11.95;;;8.70;99.90;;;;;;5070723;28;20086;-80
2022/12/20 00:06:18;;;;;;;20.55;11.20;;;8.70;99.90;;;;;;5068044;28;20043;-80
2022/12/20 00:08:44;;;;;;;20.98;9.65;;;8.70;99.90;;;;;;5064712;28;20035;-83
2022/12/20 00:11:10;;;;;;;21.63;10.85;;;8.60;99.90;;;;;;5072048;28;20021;-80
2022/12/20 00:13:37;;;;;;;20.17;10.25;;;8.70;99.90;;;;;;5070455;28;20071;-80
2022/12/20 00:16:07;;;;;;;21.05;10.43;;;8.70;99.90;;;;;;5070379;28;20043;-80
2022/12/20 00:18:34;;;;;;;17.10;9.90;;;8.80;99.90;;;;;;5071127;28;20484;-81
2022/12/20 00:21:01;;;;;;;19.00;9.27;;;8.90;99.90;;;;;;5073883;28;20024;-81
2022/12/20 00:23:28;;;;;;;23.08;8.93;;;8.90;99.90;;;;;;5064481;28;20047;-81
2022/12/20 00:26:07;;;;;;;17.33;8.90;;;8.90;99.90;;;;;;5070954;28;20098;-79
2022/12/20 00:28:34;;;;;;;14.98;7.80;;;9.00;99.90;;;;;;5076529;28;20036;-81
2022/12/20 00:31:01;;;;;;;15.65;8.70;;;9.00;99.90;;;;;;5070450;28;20028;-79
2022/12/20 00:33:27;;;;;;;15.32;8.60;;;8.90;99.90;;;;;;5067716;28;20029;-80
2022/12/20 00:35:55;;;;;;;15.82;8.05;;;8.80;99.90;;;;;;5058903;28;20033;-81
2022/12/20 00:38:21;;;;;;;19.05;9.13;;;8.70;99.90;;;;;;5064603;28;20032;-80
2022/12/20 00:40:46;;;;;;;18.40;10.50;;;8.60;99.90;;;;;;5067731;28;20047;-81
2022/12/20 00:43:12;;;;;;;17.90;9.70;;;8.50;99.90;;;;;;5067097;28;20045;-81
2022/12/20 00:45:38;;;;;;;20.95;9.05;;;8.40;99.90;;;;;;5066700;28;20124;-80
2022/12/20 00:48:04;;;;;;;23.75;11.63;;;8.20;99.90;;;;;;5066491;28;20469;-81
2022/12/20 00:50:30;;;;;;;25.52;12.13;;;8.10;99.90;;;;;;5062739;28;20025;-80
2022/12/20 00:52:55;;;;;;;21.08;11.65;;;7.90;99.90;;;;;;5063401;28;20116;-81
2022/12/20 00:55:21;;;;;;;23.00;12.88;;;7.80;99.90;;;;;;5066190;28;20054;-80
2022/12/20 00:57:46;;;;;;;24.85;12.90;;;7.60;99.90;;;;;;5064370;28;20083;-80
2022/12/20 01:00:13;;;;;;;19.80;11.82;;;7.60;99.90;;;;;;5064832;28;20024;-80
2022/12/20 01:02:41;;;;;;;26.48;13.02;;;7.50;99.90;;;;;;5069061;28;20666;-81
2022/12/20 01:05:07;;;;;;;21.90;11.55;;;7.40;99.90;;;;;;5065498;28;20051;-80
2022/12/20 01:07:33;;;;;;;18.23;9.23;;;7.40;99.90;;;;;;5061169;28;20730;-80
2022/12/20 01:09:58;;;;;;;17.23;9.27;;;7.60;99.90;;;;;;5060475;28;20032;-79
2022/12/20 01:12:24;;;;;;;18.17;8.63;;;7.90;99.90;;;;;;5070222;28;20024;-80
2022/12/20 01:14:50;;;;;;;18.50;8.43;;;8.20;99.90;;;;;;5069399;28;20376;-81
2022/12/20 01:17:15;;;;;;;21.92;9.48;;;8.30;99.90;;;;;;5066288;28;20028;-79
2022/12/20 01:19:41;;;;;;;14.95;8.10;;;8.40;99.90;;;;;;5058621;28;20108;-81
2022/12/20 01:22:06;;;;;;;24.98;10.20;;;8.40;99.90;;;;;;5061075;28;20081;-80
2022/12/20 01:24:32;;;;;;;15.13;8.93;;;8.50;99.90;;;;;;5070596;28;20036;-79
2022/12/20 01:26:58;;;;;;;19.92;9.82;;;8.60;99.90;;;;;;5062433;28;20025;-80
2022/12/20 01:29:23;;;;;;;15.10;8.18;;;8.60;99.90;;;;;;5079327;28;20051;-80
2022/12/20 01:31:49;;;;;;;20.85;9.40;;;8.60;99.90;;;;;;5054861;28;20261;-81
2022/12/20 01:34:14;;;;;;;16.83;9.98;;;8.60;99.90;;;;;;5071019;28;20032;-80
2022/12/20 01:36:41;;;;;;;27.20;10.50;;;8.50;99.90;;;;;;5074611;28;20027;-80
2022/12/20 01:39:12;;;;;;;20.25;9.98;;;8.60;99.90;;;;;;5069942;28;20043;-80
2022/12/20 01:41:39;;;;;;;18.05;9.50;;;8.60;99.90;;;;;;5068367;28;20028;-80
2022/12/20 01:44:26;;;;;;;23.48;9.05;;;8.60;99.90;;;;;;5071018;28;20056;-81
2022/12/20 01:46:53;;;;;;;19.88;9.70;;;8.50;99.90;;;;;;5059711;28;20051;-80
2022/12/20 01:49:43;;;;;;;18.58;9.77;;;8.40;99.90;;;;;;5059464;28;20131;-80
2022/12/20 01:52:14;;;;;;;15.02;9.23;;;8.40;99.90;;;;;;5061223;28;20028;-80
2022/12/20 01:54:45;;;;;;;19.48;9.13;;;8.40;99.90;;;;;;5069343;28;20031;-80
2022/12/20 01:57:23;;;;;;;15.88;9.13;;;8.30;99.90;;;;;;5066408;28;20021;-80
2022/12/20 01:59:51;;;;;;;19.98;9.82;;;8.30;99.90;;;;;;5061470;28;20392;-80
2022/12/20 02:02:17;;;;;;;15.88;9.02;;;8.20;99.90;;;;;;5063552;28;20064;-81
2022/12/20 02:04:43;;;;;;;14.95;8.75;;;8.10;99.90;;;;;;5066140;28;20378;-81
2022/12/20 02:07:14;;;;;;;28.00;10.93;;;8.10;99.90;;;;;;5065774;28;20032;-81
2022/12/20 02:09:40;;;;;;;23.13;11.70;;;8.00;99.90;;;;;;5065806;28;20009;-81
2022/12/20 02:12:14;;;;;;;20.48;10.93;;;8.00;99.90;;;;;;5061226;28;20028;-81
2022/12/20 02:15:25;;;;;;;30.08;12.07;;;8.10;99.90;;;;;;5064611;28;20036;-80
2022/12/20 02:18:09;;;;;;;18.55;9.55;;;8.20;99.90;;;;;;5020452;28;20108;-81
2022/12/20 02:21:12;;;;;;;20.65;10.95;;;8.30;99.90;;;;;;5020322;28;20092;-81
2022/12/20 02:24:08;;;;;;;16.10;9.32;;;8.20;99.90;;;;;;5063588;28;20563;-80
2022/12/20 02:26:39;;;;;;;19.88;9.38;;;8.20;99.90;;;;;;5062612;28;20051;-81
2022/12/20 02:29:26;;;;;;;23.00;10.88;;;8.10;99.90;;;;;;5065602;28;20094;-79
2022/12/20 02:32:00;;;;;;;21.65;10.80;;;8.00;99.90;;;;;;5065206;28;20032;-81
2022/12/20 02:34:29;;;;;;;20.85;10.68;;;7.90;99.90;;;;;;5067191;28;20032;-80
2022/12/20 02:36:54;;;;;;;19.08;9.30;;;7.90;99.90;;;;;;5064140;28;20039;-80
2022/12/20 02:39:23;;;;;;;17.02;10.25;;;7.80;99.90;;;;;;5071578;28;20028;-80
2022/12/20 02:41:57;;;;;;;20.00;11.05;;;7.70;99.90;;;;;;5065598;28;20020;-80
2022/12/20 02:47:19;;;;;;;18.45;11.60;;;7.70;99.90;;;;;;5063971;28;20054;-80
2022/12/20 02:49:46;;;;;;;20.42;11.40;;;7.70;99.90;;;;;;5067834;28;20055;-80
2022/12/20 02:52:13;;;;;;;21.80;10.25;;;7.70;99.90;;;;;;5063146;28;20028;-81
2022/12/20 02:54:42;;;;;;;20.85;11.35;;;7.70;99.90;;;;;;5059409;28;20500;-79
2022/12/20 02:57:20;;;;;;;26.50;11.52;;;7.70;99.90;;;;;;5059886;28;20367;-80
2022/12/20 03:00:07;;;;;;;19.50;11.25;;;7.70;99.90;;;;;;5071046;28;20393;-81
2022/12/20 03:03:21;;;;;;;21.20;10.60;;;7.70;99.90;;;;;;5060303;28;20743;-81
2022/12/20 03:05:22;;;;;;;17.83;10.77;;;7.70;99.90;;;;;;5061560;28;20041;-80
2022/12/20 03:07:48;;;;;;;21.33;11.40;;;7.70;99.90;;;;;;5063100;28;20040;-80
2022/12/20 03:10:15;;;;;;;22.73;12.02;;;7.70;99.90;;;;;;5066820;28;20036;-79
2022/12/20 03:12:41;;;;;;;24.67;12.30;;;7.80;99.90;;;;;;5069946;28;20059;-80
2022/12/20 03:15:08;;;;;;;18.55;11.60;;;7.80;99.90;;;;;;5070572;28;20067;-81
2022/12/20 03:17:34;;;;;;;23.52;12.63;;;7.80;99.90;;;;;;5068025;28;20028;-80
2022/12/20 03:19:59;;;;;;;22.80;11.65;;;7.80;99.90;;;;;;5064158;28;20032;-80
2022/12/20 03:22:26;;;;;;;23.08;11.38;;;7.80;99.90;;;;;;5067004;28;20098;-80
2022/12/20 03:24:52;;;;;;;27.92;12.40;;;7.80;99.90;;;;;;5071596;28;20044;-81
2022/12/20 03:27:17;;;;;;;22.15;10.95;;;7.80;99.90;;;;;;5079383;28;20077;-81
2022/12/20 03:29:44;;;;;;;19.55;10.40;;;7.80;99.90;;;;;;5064495;28;20033;-81
2022/12/20 03:32:11;;;;;;;22.45;10.23;;;7.90;99.90;;;;;;5071408;28;20012;-80
2022/12/20 03:34:37;;;;;;;23.05;11.18;;;7.90;99.90;;;;;;5066197;28;20047;-81
2022/12/20 03:37:02;;;;;;;22.55;11.77;;;7.90;99.90;;;;;;5075126;28;20481;-81
2022/12/20 03:39:28;;;;;;;24.42;12.32;;;8.00;99.90;;;;;;5068992;28;20658;-80
2022/12/20 03:41:53;;;;;;;21.85;11.20;;;8.10;99.90;;;;;;5074156;28;20028;-81
2022/12/20 03:44:19;;;;;;;23.23;11.90;;;8.20;99.90;;;;;;5065146;28;20059;-80
2022/12/20 03:46:45;;;;;;;18.92;10.38;;;8.20;99.90;;;;;;5064355;28;20028;-81
2022/12/20 03:49:10;;;;;;;23.17;11.50;;;8.30;99.90;;;;;;5068509;28;20063;-81
2022/12/20 03:51:36;;;;;;;23.95;11.50;;;8.40;99.90;;;;;;5070260;28;20469;-81
2022/12/20 03:54:02;;;;;;;21.63;10.90;;;8.40;99.90;;;;;;5066931;28;20451;-80
2022/12/20 03:56:27;;;;;;;24.98;11.15;;;8.40;99.90;;;;;;5067375;28;20032;-80
2022/12/20 03:58:53;;;;;;;21.33;11.18;;;8.40;99.90;;;;;;5078816;28;20351;-81
2022/12/20 04:01:30;;;;;;;20.13;11.25;;;8.50;99.90;;;;;;5072051;28;20020;-81
2022/12/20 04:03:56;;;;;;;19.38;11.35;;;8.50;99.90;;;;;;5071272;28;20037;-80
2022/12/20 04:06:22;;;;;;;20.23;10.82;;;8.60;99.90;;;;;;5073189;28;20028;-81
2022/12/20 04:08:48;;;;;;;22.02;10.63;;;8.70;99.90;;;;;;5072306;28;20029;-81
2022/12/20 04:11:15;;;;;;;20.02;10.52;;;8.70;99.90;;;;;;5066825;28;20120;-80
2022/12/20 04:13:44;;;;;;;20.15;10.88;;;8.70;99.90;;;;;;5069016;28;20037;-80
2022/12/20 04:16:11;;;;;;;19.95;9.77;;;8.70;99.90;;;;;;5069641;28;20032;-81
2022/12/20 04:18:37;;;;;;;25.33;11.10;;;8.80;99.90;;;;;;5069567;28;20024;-80
2022/12/20 04:21:05;;;;;;;25.52;11.15;;;8.80;99.90;;;;;;5072160;28;20032;-80
2022/12/20 04:23:33;;;;;;;21.70;10.70;;;8.70;99.90;;;;;;5067026;28;20045;-80
2022/12/20 04:25:59;;;;;;;23.63;11.73;;;8.70;99.90;;;;;;5067499;28;20024;-81
2022/12/20 04:28:24;;;;;;;14.05;8.75;;;8.70;99.90;;;;;;5069944;28;20031;-80
2022/12/20 04:30:50;;;;;;;21.02;11.32;;;8.70;99.90;;;;;;5061703;28;20096;-81
2022/12/20 04:33:15;;;;;;;23.80;11.18;;;8.70;99.90;;;;;;5069736;28;20101;-83
2022/12/20 04:35:41;;;;;;;31.23;13.00;;;8.80;99.90;;;;;;5071162;28;20144;-82
2022/12/20 04:38:07;;;;;;;24.13;12.90;;;8.90;99.90;;;;;;5068465;28;20017;-81
2022/12/20 04:40:32;;;;;;;20.10;11.13;;;8.90;99.90;;;;;;5068087;28;20481;-81
2022/12/20 04:42:58;;;;;;;24.67;12.13;;;9.00;99.90;;;;;;5068602;28;20123;-80
2022/12/20 04:45:24;;;;;;;21.92;11.63;;;9.00;99.90;;;;;;5074332;28;20284;-81
2022/12/20 04:47:49;;;;;;;20.88;11.10;;;9.00;99.90;;;;;;5065139;28;20036;-82
2022/12/20 04:50:15;;;;;;;17.75;10.13;;;9.10;99.90;;;;;;5070512;28;20040;-81
2022/12/20 04:55:25;;;;;;;21.08;10.98;;;9.10;99.90;;;;;;5067341;28;20107;-79
2022/12/20 04:57:50;;;;;;;26.00;12.60;;;9.10;99.90;;;;;;5075091;28;20115;-83
2022/12/20 05:00:16;;;;;;;20.88;10.35;;;9.20;99.90;;;;;;5074648;28;20542;-81
2022/12/20 05:02:45;;;;;;;22.70;10.07;;;9.20;99.90;;;;;;5073722;28;20553;-81
2022/12/20 05:05:11;;;;;;;15.52;9.65;;;9.30;99.90;;;;;;5075951;28;20119;-80
2022/12/20 05:07:36;;;;;;;17.52;9.95;;;9.30;99.90;;;;;;5068247;28;20116;-81
2022/12/20 05:10:09;;;;;;;21.95;11.00;;;9.30;99.90;;;;;;5067975;28;20032;-83
2022/12/20 05:12:34;;;;;;;28.10;10.18;;;9.40;99.90;;;;;;5067256;28;20052;-82
2022/12/20 05:15:00;;;;;;;17.63;9.45;;;9.30;99.90;;;;;;5070447;28;20485;-81
2022/12/20 05:17:25;;;;;;;16.67;9.15;;;9.40;99.90;;;;;;5074966;28;20136;-82
2022/12/20 05:19:51;;;;;;;21.85;9.57;;;9.40;99.90;;;;;;5073620;28;20091;-80
2022/12/20 05:27:50;;;;;;;13.85;8.77;;;9.70;99.90;;;;;;5065680;28;20071;-79
2022/12/20 05:30:19;;;;;;;15.80;7.88;;;9.80;99.90;;;;;;5057036;28;20055;-81
2022/12/20 05:32:45;;;;;;;18.90;9.75;;;9.80;99.90;;;;;;5065287;28;20084;-82
2022/12/20 05:35:11;;;;;;;14.55;8.75;;;9.80;99.90;;;;;;5061368;28;20021;-82
2022/12/20 05:37:36;;;;;;;19.55;9.63;;;9.80;99.90;;;;;;5069229;28;20029;-82
2022/12/20 05:40:03;;;;;;;14.82;8.88;;;9.80;99.90;;;;;;5063597;28;20032;-80
2022/12/20 05:42:30;;;;;;;17.67;9.57;;;9.70;99.90;;;;;;5062045;28;20032;-81
2022/12/20 05:44:56;;;;;;;16.40;9.80;;;9.70;99.90;;;;;;5060431;28;20421;-80
2022/12/20 05:47:21;;;;;;;18.33;8.25;;;9.70;99.90;;;;;;5069177;28;20059;-80
2022/12/20 05:49:47;;;;;;;19.25;9.63;;;9.70;99.90;;;;;;5061854;28;20044;-81
2022/12/20 05:52:13;;;;;;;14.48;8.68;;;9.60;99.90;;;;;;5069165;28;20512;-80
2022/12/20 05:54:38;;;;;;;25.08;10.35;;;9.60;99.90;;;;;;5065348;28;20035;-80
2022/12/20 05:57:04;;;;;;;19.60;10.40;;;9.50;99.90;;;;;;5066722;28;20480;-82
2022/12/20 05:59:29;;;;;;;23.83;10.77;;;9.50;99.90;;;;;;5066729;28;20477;-80
2022/12/20 06:01:55;;;;;;;23.88;9.40;;;9.40;99.90;;;;;;5069145;28;20455;-81
2022/12/20 06:04:21;;;;;;;27.17;11.73;;;9.30;99.90;;;;;;5066395;28;20473;-80
2022/12/20 06:06:46;;;;;;;24.50;10.57;;;9.30;99.90;;;;;;5065748;28;20040;-79
2022/12/20 06:09:12;;;;;;;21.45;9.98;;;9.30;99.90;;;;;;5069198;28;20028;-79
2022/12/20 06:11:38;;;;;;;21.20;10.23;;;9.50;99.90;;;;;;5068960;28;20044;-80
2022/12/20 06:14:03;;;;;;;20.73;10.52;;;9.40;99.90;;;;;;5071560;28;20032;-79
2022/12/20 06:16:32;;;;;;;26.30;10.13;;;9.40;99.90;;;;;;5070059;28;20028;-79
2022/12/20 06:18:57;;;;;;;21.58;10.48;;;9.40;99.90;;;;;;5066695;28;20123;-80
2022/12/20 06:21:23;;;;;;;22.38;10.13;;;9.30;99.90;;;;;;5066862;28;20430;-79
2022/12/20 06:23:49;;;;;;;15.40;9.38;;;9.20;99.90;;;;;;5069509;28;20378;-79
2022/12/20 06:26:15;;;;;;;18.23;9.30;;;9.30;99.90;;;;;;5069544;28;20058;-79
2022/12/20 06:28:44;;;;;;;17.67;10.10;;;9.30;99.90;;;;;;5073407;28;20025;-78
2022/12/20 06:31:10;;;;;;;18.88;9.98;;;9.30;99.90;;;;;;5071217;28;20036;-80
2022/12/20 06:33:36;;;;;;;20.60;10.93;;;9.30;99.90;;;;;;5070044;28;20082;-79
2022/12/20 06:36:03;;;;;;;26.08;10.48;;;9.40;99.90;;;;;;5075528;28;20036;-81
2022/12/20 06:38:31;;;;;;;18.17;10.93;;;9.40;99.90;;;;;;5072953;28;20024;-81
2022/12/20 06:40:57;;;;;;;23.65;10.75;;;9.20;99.90;;;;;;5070696;28;20095;-82
2022/12/20 06:43:22;;;;;;;19.92;9.98;;;9.30;99.90;;;;;;5070950;28;20079;-80
2022/12/20 06:45:48;;;;;;;17.45;10.05;;;9.20;99.90;;;;;;5073328;28;20069;-81
2022/12/20 06:48:14;;;;;;;18.25;10.65;;;9.20;99.90;;;;;;5070296;28;20466;-81
2022/12/20 06:50:39;;;;;;;21.65;10.93;;;9.20;99.90;;;;;;5070851;28;20222;-79
2022/12/20 06:53:08;;;;;;;17.83;9.15;;;9.20;99.90;;;;;;5064658;28;20036;-80
2022/12/20 06:55:33;;;;;;;24.73;10.65;;;9.10;99.90;;;;;;5064474;28;20059;-80
2022/12/20 06:57:59;;;;;;;18.35;9.90;;;9.20;99.90;;;;;;5075053;28;20048;-81
2022/12/20 07:00:25;;;;;;;21.40;9.27;;;9.30;99.90;;;;;;5072144;28;20024;-80
2022/12/20 07:02:50;;;;;;;16.42;8.93;;;9.30;99.90;;;;;;5067617;28;20033;-80
2022/12/20 07:05:16;;;;;;;21.00;9.52;;;9.30;99.90;;;;;;5067953;28;20474;-83
2022/12/20 07:07:41;;;;;;;15.15;8.88;;;9.30;99.90;;;;;;5063753;28;20135;-81
2022/12/20 07:10:08;;;;;;;17.20;9.23;;;9.30;99.90;;;;;;5066488;28;20045;-81
2022/12/20 07:12:33;;;;;;;15.90;8.43;;;9.30;99.90;;;;;;5066434;28;20044;-81
2022/12/20 07:15:00;;;;;;;15.30;8.65;;;9.30;99.90;;;;;;5068749;28;20024;-82
2022/12/20 07:17:26;;;;;;;14.88;7.28;;;9.30;99.90;;;;;;5064194;28;20025;-82
2022/12/20 07:19:51;;;;;;;13.98;8.57;;;9.40;99.90;;;;;;5074715;28;20040;-82
2022/12/20 07:22:17;;;;;;;14.98;7.78;;;9.40;99.90;;;;;;5075948;28;20028;-81
2022/12/20 07:24:42;;;;;;;12.90;7.25;;;9.40;99.90;;;;;;5073620;28;20072;-80
2022/12/20 07:27:10;;;;;;;12.40;7.40;;;9.40;99.90;;;;;;5070691;28;20119;-82
2022/12/20 07:29:39;;;;;;;12.30;6.47;;;9.50;99.90;;;;;;5068996;28;20142;-82
2022/12/20 07:32:05;;;;;;;14.05;7.43;;;9.40;99.90;;;;;;5073202;28;20047;-82
2022/12/20 07:34:30;;;;;;;18.70;8.68;;;9.40;99.90;;;;;;5071355;28;20040;-81
2022/12/20 07:36:56;;;;;;;14.15;5.93;;;9.40;99.90;;;;;;5069901;28;20024;-81
2022/12/20 07:39:22;;;;;;;10.93;6.90;;;9.40;99.90;;;;;;5070170;28;20496;-81
2022/12/20 07:41:47;;;;;;;9.93;6.20;;;9.40;99.90;;;;;;5071420;28;20039;-80
2022/12/20 07:44:13;;;;;;;16.00;7.38;;;9.30;99.90;;;;;;5073949;28;20467;-81
2022/12/20 07:46:38;;;;;;;21.15;10.15;;;9.30;99.90;;;;;;5077076;28;20028;-81
2022/12/20 07:49:04;;;;;;;14.23;7.47;;;9.30;99.90;;;;;;5069885;28;20439;-82
2022/12/20 07:51:35;;;;;;;15.45;7.88;;;9.30;99.90;;;;;;5076328;28;20060;-82
2022/12/20 07:54:10;;;;;;;17.25;10.15;;;9.40;99.90;;;;;;5070372;28;20036;-82
2022/12/20 07:56:39;;;;;;;16.50;7.45;;;9.40;99.90;;;;;;5079951;28;20907;-82
2022/12/20 07:59:06;;;;;;;13.05;6.30;;;9.30;99.90;;;;;;5075233;28;20027;-83
2022/12/20 08:01:31;;;;;;;14.50;6.82;;;9.30;99.90;;;;;;5073732;28;20032;-81
2022/12/20 08:04:10;;;;;;;11.85;6.40;;;9.30;99.90;;;;;;5073939;28;20059;-81
2022/12/20 08:06:36;;;;;;;18.67;7.60;;;9.30;99.90;;;;;;5076271;28;20040;-83
2022/12/20 08:09:05;;;;;;;16.83;7.22;;;9.40;99.90;;;;;;5076200;28;20028;-81
2022/12/20 08:11:34;;;;;;;15.15;7.28;;;9.40;99.90;;;;;;5070788;28;20031;-81
2022/12/20 08:13:59;;;;;;;14.75;8.02;;;9.50;99.90;;;;;;5075453;28;20540;-83
2022/12/20 08:16:25;;;;;;;15.55;7.70;;;9.60;99.90;;;;;;5077606;28;20055;-81
2022/12/20 08:18:51;;;;;;;20.77;8.20;;;9.60;99.90;;;;;;5078980;28;20031;-79
2022/12/20 08:21:17;;;;;;;18.25;9.40;;;9.70;99.90;;;;;;5074760;28;20036;-81
2022/12/20 08:23:43;;;;;;;17.48;8.30;;;9.70;99.90;;;;;;5082873;28;20051;-82
2022/12/20 08:26:09;;;;;;;18.40;8.63;;;9.60;99.90;;;;;;5076431;28;20028;-80
2022/12/20 08:28:34;;;;;;;18.10;8.82;;;9.70;99.90;;;;;;5063205;28;20263;-81
2022/12/20 08:31:07;;;;;;;18.45;8.75;;;9.60;99.90;;;;;;5068944;28;20108;-81
2022/12/20 08:33:34;;;;;;;20.77;9.48;;;9.50;99.90;;;;;;5066354;28;20085;-82
2022/12/20 08:36:03;;;;;;;19.45;9.60;;;9.50;99.90;;;;;;5067801;28;20116;-81
2022/12/20 08:38:31;;;;;;;21.13;8.85;;;9.50;99.90;;;;;;5060708;28;20438;-80
2022/12/20 08:41:11;;;;;;;20.45;10.52;;;9.50;99.90;;;;;;5066150;28;20119;-81
2022/12/20 08:43:37;;;;;;;15.10;8.27;;;9.60;99.90;;;;;;5064529;28;20049;-82
2022/12/20 08:46:03;;;;;;;18.48;9.80;;;9.60;99.90;;;;;;5071739;28;20024;-80
2022/12/20 08:48:29;;;;;;;15.15;8.13;;;9.60;99.90;;;;;;5073567;28;20024;-81
2022/12/20 08:50:57;;;;;;;14.73;9.02;;;9.60;99.90;;;;;;5070128;28;20024;-80
2022/12/20 08:53:23;;;;;;;17.25;8.45;;;9.50;99.90;;;;;;5070894;28;20106;-79
2022/12/20 08:55:49;;;;;;;16.55;8.63;;;9.50;99.90;;;;;;5071713;28;20532;-80
2022/12/20 08:58:15;;;;;;;14.00;8.13;;;9.50;99.90;;;;;;5068732;28;20408;-79
2022/12/20 09:00:40;;;;;;;19.02;8.40;;;9.60;99.90;;;;;;5071600;28;20039;-80
2022/12/20 09:03:07;;;;;;;13.73;7.95;;;9.60;99.90;;;;;;5077579;28;20466;-81
2022/12/20 09:05:33;;;;;;;18.55;7.88;;;9.60;99.90;;;;;;5070203;28;20089;-80
2022/12/20 09:07:58;;;;;;;17.60;8.43;;;9.60;99.90;;;;;;5071182;28;20179;-79
2022/12/20 09:10:24;;;;;;;14.65;7.97;;;9.60;99.90;;;;;;5069360;28;20107;-80
2022/12/20 09:12:50;;;;;;;21.40;8.50;;;9.60;99.90;;;;;;5071271;28;20242;-79
2022/12/20 09:15:15;;;;;;;17.20;8.50;;;9.60;99.90;;;;;;5070920;28;20586;-81
2022/12/20 09:17:41;;;;;;;13.73;7.18;;;9.60;99.90;;;;;;5067529;28;20173;-81
2022/12/20 09:20:07;;;;;;;20.23;7.97;;;9.60;99.90;;;;;;5069041;28;20020;-80
2022/12/20 09:22:32;;;;;;;11.65;6.90;;;9.70;99.90;;;;;;5071072;28;20035;-80
2022/12/20 09:24:58;;;;;;;12.57;6.40;;;9.80;99.90;;;;;;5075360;28;20032;-81
2022/12/20 09:27:24;;;;;;;12.85;6.90;;;9.90;99.90;;;;;;5078025;28;20031;-80
2022/12/20 09:29:49;;;;;;;10.30;5.82;;;10.00;99.90;;;;;;5075420;28;20028;-81
2022/12/20 09:32:15;;;;;;;12.18;6.55;;;10.00;99.90;;;;;;5075203;28;20434;-81
2022/12/20 09:34:40;;;;;;;12.43;6.72;;;10.10;99.90;;;;;;5070624;28;20033;-80
2022/12/20 09:37:06;;;;;;;13.27;6.53;;;10.10;99.90;;;;;;5070469;28;20028;-82
2022/12/20 09:39:32;;;;;;;14.10;7.63;;;10.00;99.90;;;;;;5072142;28;20033;-82
2022/12/20 09:41:58;;;;;;;12.43;7.72;;;10.10;99.90;;;;;;5067711;28;20408;-82
2022/12/20 09:44:29;;;;;;;15.57;6.88;;;10.10;99.90;;;;;;5070643;28;20131;-81
2022/12/20 09:47:00;;;;;;;13.77;8.02;;;10.10;99.90;;;;;;5068315;28;20028;-80
2022/12/20 09:49:30;;;;;;;13.93;7.68;;;10.00;99.90;;;;;;5070214;28;20095;-79
2022/12/20 09:52:28;;;;;;;16.77;7.97;;;10.00;99.90;;;;;;5068551;28;20050;-80
2022/12/20 09:55:08;;;;;;;13.90;6.95;;;10.00;99.90;;;;;;5067925;28;20515;-81
2022/12/20 09:57:46;;;;;;;18.02;8.07;;;10.00;99.90;;;;;;5074531;28;20413;-81
2022/12/20 10:00:16;;;;;;;15.70;7.70;;;10.00;99.90;;;;;;5070297;28;20111;-80
2022/12/20 10:02:42;;;;;;;16.20;8.15;;;10.00;99.90;;;;;;5067078;28;20060;-80
2022/12/20 10:05:15;;;;;;;13.25;7.45;;;10.00;99.90;;;;;;5070910;28;20485;-81
2022/12/20 10:08:11;;;;;;;13.95;7.25;;;9.90;99.90;;;;;;5069584;28;20028;-80
2022/12/20 10:10:56;;;;;;;15.85;8.07;;;9.90;99.90;;;;;;5067773;28;20032;-81
2022/12/20 10:13:34;;;;;;;15.82;8.00;;;10.00;99.90;;;;;;5066563;28;20037;-81
2022/12/20 10:16:05;;;;;;;16.15;6.25;;;9.90;99.90;;;;;;5062813;28;20393;-80
2022/12/20 10:18:52;;;;;;;12.23;6.45;;;10.00;99.90;;;;;;5074587;28;20024;-80
2022/12/20 10:21:29;;;;;;;10.73;6.63;;;10.00;99.90;;;;;;5070910;28;20028;-80
2022/12/20 10:24:04;;;;;;;11.68;6.72;;;9.90;99.90;;;;;;5068914;28;20481;-79
2022/12/20 10:26:32;;;;;;;14.00;6.18;;;10.00;99.90;;;;;;5073721;28;20036;-80
2022/12/20 10:28:58;;;;;;;9.85;5.93;;;9.90;99.90;;;;;;5068584;28;20037;-81
2022/12/20 10:31:24;;;;;;;11.85;6.10;;;9.80;99.90;;;;;;5058944;28;20081;-81
2022/12/20 10:33:50;;;;;;;13.55;6.53;;;9.70;99.90;;;;;;5065431;28;20071;-82
2022/12/20 10:36:21;;;;;;;11.63;5.82;;;9.80;99.90;;;;;;5065849;28;20037;-81
2022/12/20 10:38:50;;;;;;;11.23;5.47;;;9.90;99.90;;;;;;5064465;28;20081;-79
2022/12/20 10:41:19;;;;;;;12.45;5.75;;;9.90;99.90;;;;;;5066715;28;20024;-81
2022/12/20 10:43:49;;;;;;;10.75;4.80;;;10.00;99.90;;;;;;5068613;28;20112;-80
2022/12/20 10:46:17;;;;;;;11.52;5.05;;;9.90;99.90;;;;;;5072994;28;20495;-81
2022/12/20 10:48:45;;;;;;;12.57;5.28;;;9.90;99.90;;;;;;5065910;28;20082;-81
2022/12/20 10:51:14;;;;;;;8.25;5.15;;;9.80;99.90;;;;;;5065332;28;20024;-81
2022/12/20 10:54:00;;;;;;;8.32;4.85;;;9.80;99.90;;;;;;5061614;28;20040;-80
2022/12/20 10:56:35;;;;;;;8.48;5.55;;;9.80;99.90;;;;;;5067895;28;20060;-80
2022/12/20 10:59:20;;;;;;;9.02;4.45;;;9.90;99.90;;;;;;5071568;28;20033;-80
2022/12/20 11:01:47;;;;;;;16.98;4.95;;;10.00;99.90;;;;;;5077594;28;20020;-80
2022/12/20 11:04:27;;;;;;;6.13;4.40;;;10.10;99.90;;;;;;5069891;28;20508;-80
2022/12/20 11:06:53;;;;;;;12.00;4.57;;;10.10;99.90;;;;;;5064658;28;20032;-80
2022/12/20 11:09:27;;;;;;;8.23;4.53;;;10.10;99.90;;;;;;5072350;28;20293;-80
2022/12/20 11:12:15;;;;;;;11.07;4.97;;;10.10;99.90;;;;;;5071384;28;20527;-80
2022/12/20 11:14:44;;;;;;;7.20;4.75;;;10.20;99.90;;;;;;5069181;28;20032;-80
2022/12/20 11:17:13;;;;;;;12.23;4.32;;;10.10;99.90;;;;;;5073164;28;20031;-81
2022/12/20 11:19:41;;;;;;;12.45;5.55;;;10.20;99.90;;;;;;5072962;28;20028;-80
2022/12/20 11:22:26;;;;;;;7.68;4.43;;;10.20;99.90;;;;;;5071326;28;20028;-80
2022/12/20 11:25:30;;;;;;;8.82;4.57;;;10.20;99.90;;;;;;5081188;28;20698;-80
2022/12/20 11:28:07;;;;;;;7.65;4.65;;;10.20;99.90;;;;;;5069366;28;20005;-81
2022/12/20 11:30:47;;;;;;;5.95;4.15;;;10.40;99.90;;;;;;5069627;28;20133;-80
2022/12/20 11:33:28;;;;;;;8.93;4.25;;;10.40;99.90;;;;;;5071730;28;20264;-81
2022/12/20 11:36:03;;;;;;;6.88;4.68;;;10.60;99.90;;;;;;5072499;28;20377;-80
2022/12/20 11:38:47;;;;;;;12.45;5.00;;;10.60;99.90;;;;;;5067989;28;20246;-81
2022/12/20 11:41:32;;;;;;;11.10;4.88;;;10.70;99.90;;;;;;5076019;28;20109;-80
2022/12/20 11:44:31;;;;;;;6.03;3.95;;;10.80;99.90;;;;;;5068271;28;20139;-81
2022/12/20 11:47:34;;;;;;;9.55;5.55;;;10.80;99.90;;;;;;5075289;28;20037;-80
2022/12/20 11:50:12;;;;;;;14.02;4.47;;;10.90;99.90;;;;;;5074363;28;20029;-81
2022/12/20 11:52:55;;;;;;;9.52;4.43;;;10.90;99.90;;;;;;5072372;28;20532;-81
2022/12/20 11:55:26;;;;;;;6.60;3.95;;;10.90;99.90;;;;;;5076549;28;20032;-82
2022/12/20 11:57:54;;;;;;;9.30;4.35;;;10.90;99.90;;;;;;5072576;28;20028;-80
2022/12/20 12:00:21;;;;;;;10.15;4.35;;;10.90;99.90;;;;;;5071485;28;20089;-82
2022/12/20 12:03:15;;;;;;;10.32;4.57;;;10.90;99.90;;;;;;5069982;28;20093;-82
2022/12/20 12:05:47;;;;;;;14.63;3.80;;;11.00;99.90;;;;;;5067245;28;20048;-81
2022/12/20 12:08:30;;;;;;;7.72;3.83;;;11.00;99.90;;;;;;5069675;28;20058;-82
2022/12/20 12:11:19;;;;;;;9.75;4.95;;;10.90;99.90;;;;;;5067490;28;20008;-80
2022/12/20 12:13:45;;;;;;;12.88;5.20;;;11.00;99.90;;;;;;5074953;28;20045;-82
2022/12/20 12:16:33;;;;;;;11.73;4.57;;;11.10;99.90;;;;;;5080862;28;20401;-80
2022/12/20 12:19:00;;;;;;;10.20;4.47;;;11.20;99.90;;;;;;5072445;28;20024;-80
2022/12/20 12:21:38;;;;;;;8.13;4.35;;;11.10;99.90;;;;;;5075539;28;20068;-80
2022/12/20 12:24:23;;;;;;;12.65;4.88;;;11.00;99.90;;;;;;5067592;28;20063;-81
2022/12/20 12:26:50;;;;;;;17.60;5.22;;;11.00;99.90;;;;;;5075432;28;20431;-81
2022/12/20 12:29:18;;;;;;;6.25;4.38;;;10.90;99.90;;;;;;5071321;28;20064;-80
2022/12/20 12:31:52;;;;;;;9.38;4.95;;;10.80;99.90;;;;;;5074047;28;20079;-80
2022/12/20 12:34:38;;;;;;;10.93;4.28;;;10.80;99.90;;;;;;5073932;28;20036;-81
2022/12/20 12:37:13;;;;;;;9.63;4.03;;;10.80;99.90;;;;;;5077208;28;20036;-81
2022/12/20 12:40:00;;;;;;;8.30;4.55;;;10.70;99.90;;;;;;5074587;28;20377;-80
2022/12/20 12:42:42;;;;;;;9.82;5.30;;;10.70;99.90;;;;;;5075704;28;20055;-80
2022/12/20 12:45:34;;;;;;;10.88;4.78;;;10.80;99.90;;;;;;5082067;28;20076;-82
2022/12/20 12:48:21;;;;;;;17.63;5.43;;;10.70;99.90;;;;;;5075608;28;20132;-80
2022/12/20 12:50:50;;;;;;;11.68;5.82;;;10.80;99.90;;;;;;5077921;28;20035;-80
2022/12/20 12:53:26;;;;;;;10.85;5.53;;;10.80;99.90;;;;;;5077372;28;20108;-80
2022/12/20 12:55:53;;;;;;;12.77;6.03;;;10.80;99.90;;;;;;5071769;28;20028;-80
2022/12/20 12:59:05;;;;;;;12.77;5.85;;;10.90;99.90;;;;;;5106567;27;20418;-80
2022/12/20 13:02:02;;;;;;;10.18;4.97;;;10.80;99.90;;;;;;5101971;28;20424;-80
2022/12/20 13:04:49;;;;;;;11.35;5.03;;;10.70;99.90;;;;;;5080474;28;20024;-80
2022/12/20 13:07:39;;;;;;;13.35;6.28;;;10.70;99.90;;;;;;5078935;28;20031;-80
2022/12/20 13:10:07;;;;;;;11.27;6.30;;;10.70;99.90;;;;;;5092280;28;20028;-81